Time,TemperatureF,DewpointF,PressureIn,WindDirection,WindDirectionDegrees,WindSpeedMPH,WindSpeedGustMPH,Humidity,HourlyPrecipIn,Conditions,Clouds,dailyrainin,SoftwareType,DateUTC
2013-02-18 00:01:00,47.0,9.0,29.63,West,266,11.0,18.0,21,0.00,,,0.00,,2013-02-18 07:01:00,
2013-02-18 00:11:00,47.0,9.0,29.63,West,266,11.0,18.0,21,0.00,,,0.00,,2013-02-18 07:11:00,
2013-02-18 00:21:00,46.0,9.0,29.63,WSW,242,15.0,17.0,22,0.00,,,0.00,,2013-02-18 07:21:00,
2013-02-18 00:32:00,46.0,9.0,29.63,West,272,9.0,14.0,22,0.00,,,0.00,,2013-02-18 07:32:00,
2013-02-18 00:42:00,46.0,9.0,29.63,West,272,9.0,14.0,22,0.00,,,0.00,,2013-02-18 07:42:00,
2013-02-18 00:52:00,45.0,8.0,29.64,West,263,11.0,13.0,22,0.00,,,0.00,,2013-02-18 07:52:00,
2013-02-18 01:01:00,45.0,9.0,29.64,WSW,253,5.0,12.0,23,0.00,,,0.00,,2013-02-18 08:01:00,
2013-02-18 01:11:00,44.0,9.0,29.64,WSW,242,8.0,10.0,23,0.00,,,0.00,,2013-02-18 08:11:00,
2013-02-18 01:21:00,44.0,9.0,29.64,WSW,242,8.0,10.0,23,0.00,,,0.00,,2013-02-18 08:21:00,
2013-02-18 01:32:00,44.0,10.0,29.65,West,259,7.0,9.0,24,0.00,,,0.00,,2013-02-18 08:32:00,
2013-02-18 01:42:00,44.0,10.0,29.65,West,259,7.0,9.0,24,0.00,,,0.00,,2013-02-18 08:42:00,
2013-02-18 01:52:00,43.0,9.0,29.65,West,267,6.0,10.0,24,0.00,,,0.00,,2013-02-18 08:52:00,
2013-02-18 02:02:00,43.0,10.0,29.66,WSW,243,5.0,10.0,25,0.00,,,0.00,,2013-02-18 09:02:00,
2013-02-18 02:11:00,43.0,10.0,29.66,WSW,243,5.0,10.0,25,0.00,,,0.00,,2013-02-18 09:11:00,
2013-02-18 02:22:00,42.0,9.0,29.66,West,261,4.0,6.0,25,0.00,,,0.00,,2013-02-18 09:22:00,
2013-02-18 02:31:00,42.0,9.0,29.66,West,262,3.0,6.0,25,0.00,,,0.00,,2013-02-18 09:31:00,
2013-02-18 02:41:00,42.0,9.0,29.66,West,262,3.0,6.0,25,0.00,,,0.00,,2013-02-18 09:41:00,
2013-02-18 02:52:00,41.0,8.0,29.66,SW,218,1.0,4.0,25,0.00,,,0.00,,2013-02-18 09:52:00,
2013-02-18 03:01:00,40.0,9.0,29.66,SSE,154,1.0,3.0,27,0.00,,,0.00,,2013-02-18 10:01:00,
2013-02-18 03:11:00,40.0,9.0,29.66,SSE,154,1.0,3.0,27,0.00,,,0.00,,2013-02-18 10:11:00,
2013-02-18 03:21:00,39.0,8.0,29.66,SW,229,2.0,3.0,27,0.00,,,0.00,,2013-02-18 10:21:00,
2013-02-18 03:31:00,38.0,7.0,29.66,West,261,1.0,3.0,27,0.00,,,0.00,,2013-02-18 10:31:00,
2013-02-18 03:42:00,38.0,7.0,29.66,West,261,1.0,3.0,27,0.00,,,0.00,,2013-02-18 10:42:00,
2013-02-18 03:53:00,38.0,8.0,29.67,ESE,115,1.0,2.0,28,0.00,,,0.00,,2013-02-18 10:53:00,
2013-02-18 04:01:00,37.0,7.0,29.68,SSW,197,1.0,2.0,28,0.00,,,0.00,,2013-02-18 11:01:00,
2013-02-18 04:11:00,37.0,7.0,29.68,SSW,197,1.0,2.0,28,0.00,,,0.00,,2013-02-18 11:11:00,
2013-02-18 04:22:00,36.0,7.0,29.68,SSE,147,1.0,1.0,29,0.00,,,0.00,,2013-02-18 11:22:00,
2013-02-18 04:32:00,36.0,8.0,29.68,SW,225,0.0,3.0,30,0.00,,,0.00,,2013-02-18 11:32:00,
2013-02-18 04:42:00,36.0,8.0,29.68,SW,225,0.0,3.0,30,0.00,,,0.00,,2013-02-18 11:42:00,
2013-02-18 04:52:00,35.0,7.0,29.69,ESE,109,1.0,2.0,31,0.00,,,0.00,,2013-02-18 11:52:00,
2013-02-18 05:02:00,35.0,8.0,29.70,East,99,1.0,2.0,32,0.00,,,0.00,,2013-02-18 12:02:00,
2013-02-18 05:11:00,35.0,8.0,29.70,East,99,1.0,2.0,32,0.00,,,0.00,,2013-02-18 12:11:00,
2013-02-18 05:22:00,34.0,7.0,29.71,East,90,1.0,2.0,32,0.00,,,0.00,,2013-02-18 12:22:00,
2013-02-18 05:32:00,33.0,8.0,29.73,NE,46,1.0,3.0,35,0.00,,,0.00,,2013-02-18 12:32:00,
2013-02-18 05:42:00,33.0,8.0,29.73,NE,46,1.0,3.0,35,0.00,,,0.00,,2013-02-18 12:42:00,
2013-02-18 05:53:00,36.0,15.0,29.74,NNW,336,4.0,5.0,41,0.00,,,0.00,,2013-02-18 12:53:00,
2013-02-18 06:02:00,37.0,16.0,29.74,North,357,3.0,5.0,42,0.00,,,0.00,,2013-02-18 13:02:00,
2013-02-18 06:12:00,37.0,16.0,29.74,North,357,3.0,5.0,42,0.00,,,0.00,,2013-02-18 13:12:00,
2013-02-18 06:22:00,37.0,17.0,29.75,NNW,343,6.0,12.0,44,0.00,,,0.00,,2013-02-18 13:22:00,
2013-02-18 06:32:00,37.0,18.0,29.76,NNW,340,5.0,8.0,45,0.00,,,0.00,,2013-02-18 13:32:00,
2013-02-18 06:42:00,37.0,18.0,29.76,NNW,340,5.0,8.0,45,0.00,,,0.00,,2013-02-18 13:42:00,
2013-02-18 06:53:00,37.0,17.0,29.77,North,5,3.0,5.0,44,0.00,,,0.00,,2013-02-18 13:53:00,
2013-02-18 07:02:00,36.0,17.0,29.78,NNW,338,4.0,6.0,45,0.00,,,0.00,,2013-02-18 14:02:00,
2013-02-18 07:11:00,36.0,17.0,29.78,NNW,338,4.0,6.0,45,0.00,,,0.00,,2013-02-18 14:11:00,
2013-02-18 07:32:00,36.0,17.0,29.80,North,0,2.0,4.0,45,0.00,,,0.00,,2013-02-18 14:32:00,
2013-02-18 07:42:00,36.0,17.0,29.80,North,0,2.0,4.0,45,0.00,,,0.00,,2013-02-18 14:42:00,
2013-02-18 07:53:00,36.0,16.0,29.81,North,5,8.0,13.0,44,0.00,,,0.00,,2013-02-18 14:53:00,
2013-02-18 08:02:00,36.0,15.0,29.82,North,351,7.0,10.0,42,0.00,,,0.00,,2013-02-18 15:02:00,
2013-02-18 08:22:00,36.0,13.0,29.82,NNW,346,8.0,17.0,38,0.00,,,0.00,,2013-02-18 15:22:00,
2013-02-18 08:32:00,36.0,11.0,29.84,NNW,345,10.0,12.0,35,0.00,,,0.00,,2013-02-18 15:32:00,
2013-02-18 08:42:00,36.0,11.0,29.84,NNW,345,10.0,12.0,35,0.00,,,0.00,,2013-02-18 15:42:00,
2013-02-18 08:52:00,36.0,8.0,29.86,North,355,8.0,13.0,31,0.00,,,0.00,,2013-02-18 15:52:00,
2013-02-18 09:02:00,37.0,7.0,29.87,North,7,8.0,10.0,28,0.00,,,0.00,,2013-02-18 16:02:00,
2013-02-18 09:12:00,37.0,7.0,29.87,North,7,8.0,10.0,28,0.00,,,0.00,,2013-02-18 16:12:00,
2013-02-18 09:22:00,37.0,6.0,29.87,NNW,328,6.0,13.0,27,0.00,,,0.00,,2013-02-18 16:22:00,
2013-02-18 09:32:00,38.0,7.0,29.87,NNW,347,7.0,13.0,27,0.00,,,0.00,,2013-02-18 16:32:00,
2013-02-18 09:42:00,38.0,7.0,29.87,NNW,347,7.0,13.0,27,0.00,,,0.00,,2013-02-18 16:42:00,
2013-02-18 09:53:00,39.0,5.0,29.87,North,3,7.0,13.0,24,0.00,,,0.00,,2013-02-18 16:53:00,
2013-02-18 10:03:00,39.0,4.0,29.87,North,355,9.0,14.0,23,0.00,,,0.00,,2013-02-18 17:03:00,
2013-02-18 10:12:00,39.0,4.0,29.87,North,355,9.0,14.0,23,0.00,,,0.00,,2013-02-18 17:12:00,
2013-02-18 10:22:00,40.0,5.0,29.87,NNW,329,8.0,13.0,23,0.00,,,0.00,,2013-02-18 17:22:00,
2013-02-18 10:32:00,41.0,5.0,29.87,North,349,6.0,14.0,22,0.00,,,0.00,,2013-02-18 17:32:00,
2013-02-18 10:42:00,41.0,5.0,29.87,North,349,6.0,14.0,22,0.00,,,0.00,,2013-02-18 17:42:00,
2013-02-18 10:53:00,42.0,5.0,29.88,NW,322,8.0,14.0,21,0.00,,,0.00,,2013-02-18 17:53:00,
2013-02-18 11:02:00,43.0,6.0,29.87,North,3,5.0,7.0,21,0.00,,,0.00,,2013-02-18 18:02:00,
2013-02-18 11:12:00,43.0,6.0,29.87,North,3,5.0,7.0,21,0.00,,,0.00,,2013-02-18 18:12:00,
2013-02-18 11:22:00,43.0,5.0,29.87,NW,316,7.0,12.0,20,0.00,,,0.00,,2013-02-18 18:22:00,
2013-02-18 11:32:00,44.0,-1.0,29.88,WNW,303,11.0,13.0,15,0.00,,,0.00,,2013-02-18 18:32:00,
2013-02-18 11:42:00,44.0,-1.0,29.88,WNW,303,11.0,13.0,15,0.00,,,0.00,,2013-02-18 18:42:00,
2013-02-18 11:53:00,45.0,0.0,29.87,NW,318,2.0,14.0,15,0.00,,,0.00,,2013-02-18 18:53:00,
2013-02-18 12:12:00,45.0,-1.0,29.87,NNW,329,6.0,12.0,14,0.00,,,0.00,,2013-02-18 19:12:00,
2013-02-18 12:22:00,46.0,-4.0,29.86,NNW,330,7.0,9.0,12,0.00,,,0.00,,2013-02-18 19:22:00,
2013-02-18 12:33:00,47.0,-5.0,29.85,NNW,348,4.0,11.0,11,0.00,,,0.00,,2013-02-18 19:33:00,
2013-02-18 12:42:00,47.0,-5.0,29.85,NNW,348,4.0,11.0,11,0.00,,,0.00,,2013-02-18 19:42:00,
2013-02-18 12:53:00,48.0,-4.0,29.84,NW,318,8.0,11.0,11,0.00,,,0.00,,2013-02-18 19:53:00,
2013-02-18 13:02:00,49.0,-3.0,29.84,NNW,327,7.0,10.0,11,0.00,,,0.00,,2013-02-18 20:02:00,
2013-02-18 13:12:00,49.0,-3.0,29.84,NNW,327,7.0,10.0,11,0.00,,,0.00,,2013-02-18 20:12:00,
2013-02-18 13:23:00,49.0,-5.0,29.83,WNW,303,7.0,10.0,10,0.00,,,0.00,,2013-02-18 20:23:00,
2013-02-18 13:33:00,49.0,-3.0,29.83,West,269,7.0,11.0,11,0.00,,,0.00,,2013-02-18 20:33:00,
2013-02-18 13:42:00,49.0,-3.0,29.83,West,269,7.0,11.0,11,0.00,,,0.00,,2013-02-18 20:42:00,
2013-02-18 13:53:00,51.0,-4.0,29.82,NW,307,6.0,12.0,10,0.00,,,0.00,,2013-02-18 20:53:00,
2013-02-18 14:02:00,50.0,-4.0,29.82,NW,308,6.0,10.0,10,0.00,,,0.00,,2013-02-18 21:02:00,
2013-02-18 14:12:00,50.0,-4.0,29.82,NW,308,6.0,10.0,10,0.00,,,0.00,,2013-02-18 21:12:00,
2013-02-18 14:22:00,52.0,-7.0,29.82,NW,326,7.0,11.0,8,0.00,,,0.00,,2013-02-18 21:22:00,
2013-02-18 14:32:00,51.0,-8.0,29.81,WNW,294,6.0,9.0,8,0.00,,,0.00,,2013-02-18 21:32:00,
2013-02-18 14:42:00,51.0,-8.0,29.81,WNW,294,6.0,9.0,8,0.00,,,0.00,,2013-02-18 21:42:00,
2013-02-18 14:53:00,51.0,-8.0,29.81,NW,324,9.0,13.0,8,0.00,,,0.00,,2013-02-18 21:53:00,
2013-02-18 15:02:00,51.0,-11.0,29.81,NNW,329,9.0,12.0,7,0.00,,,0.00,,2013-02-18 22:02:00,
2013-02-18 15:12:00,52.0,-10.0,29.81,NNW,329,10.0,13.0,7,0.00,,,0.00,,2013-02-18 22:12:00,
2013-02-18 15:22:00,52.0,-10.0,29.81,NNW,329,10.0,13.0,7,0.00,,,0.00,,2013-02-18 22:22:00,
2013-02-18 15:33:00,52.0,-13.0,29.81,WNW,286,9.0,15.0,6,0.00,,,0.00,,2013-02-18 22:33:00,
2013-02-18 15:42:00,52.0,-13.0,29.81,WNW,286,9.0,15.0,6,0.00,,,0.00,,2013-02-18 22:42:00,
2013-02-18 15:53:00,52.0,-13.0,29.82,NNW,337,8.0,12.0,6,0.00,,,0.00,,2013-02-18 22:53:00,
2013-02-18 16:02:00,51.0,-14.0,29.82,WNW,301,5.0,11.0,6,0.00,,,0.00,,2013-02-18 23:02:00,
2013-02-18 16:12:00,51.0,-14.0,29.82,WNW,301,5.0,11.0,6,0.00,,,0.00,,2013-02-18 23:12:00,
2013-02-18 16:22:00,51.0,-11.0,29.81,NNW,343,6.0,10.0,7,0.00,,,0.00,,2013-02-18 23:22:00,
2013-02-18 16:32:00,51.0,-14.0,29.81,NW,306,10.0,13.0,6,0.00,,,0.00,,2013-02-18 23:32:00,
2013-02-18 16:42:00,51.0,-14.0,29.81,NW,306,10.0,13.0,6,0.00,,,0.00,,2013-02-18 23:42:00,
2013-02-18 16:53:00,50.0,-15.0,29.81,NNW,331,7.0,11.0,6,0.00,,,0.00,,2013-02-18 23:53:00,
2013-02-18 17:02:00,50.0,-15.0,29.81,North,358,7.0,9.0,6,0.00,,,0.00,,2013-02-19 00:02:00,
2013-02-18 17:12:00,50.0,-15.0,29.81,North,358,7.0,9.0,6,0.00,,,0.00,,2013-02-19 00:12:00,
2013-02-18 17:22:00,50.0,-15.0,29.81,NNW,338,7.0,10.0,6,0.00,,,0.00,,2013-02-19 00:22:00,
2013-02-18 17:33:00,49.0,-15.0,29.81,NNW,327,8.0,11.0,6,0.00,,,0.00,,2013-02-19 00:33:00,
2013-02-18 17:43:00,49.0,-15.0,29.81,NNW,327,8.0,11.0,6,0.00,,,0.00,,2013-02-19 00:43:00,
2013-02-18 17:54:00,49.0,-12.0,29.81,North,353,8.0,10.0,7,0.00,,,0.00,,2013-02-19 00:54:00,
2013-02-18 18:03:00,48.0,-13.0,29.81,North,4,5.0,9.0,7,0.00,,,0.00,,2013-02-19 01:03:00,
2013-02-18 18:13:00,48.0,-13.0,29.81,North,4,5.0,9.0,7,0.00,,,0.00,,2013-02-19 01:13:00,
2013-02-18 18:23:00,47.0,-14.0,29.82,North,353,3.0,7.0,7,0.00,,,0.00,,2013-02-19 01:23:00,
2013-02-18 18:33:00,46.0,-15.0,29.82,NE,42,1.0,5.0,7,0.00,,,0.00,,2013-02-19 01:33:00,
2013-02-18 18:43:00,46.0,-15.0,29.82,NE,42,1.0,5.0,7,0.00,,,0.00,,2013-02-19 01:43:00,
2013-02-18 18:55:00,45.0,-15.0,29.83,NE,53,2.0,4.0,7,0.00,,,0.00,,2013-02-19 01:55:00,
2013-02-18 19:02:00,44.0,-16.0,29.83,North,359,2.0,6.0,7,0.00,,,0.00,,2013-02-19 02:02:00,
2013-02-18 19:13:00,44.0,-16.0,29.83,North,359,2.0,6.0,7,0.00,,,0.00,,2013-02-19 02:13:00,
2013-02-18 19:23:00,44.0,-16.0,29.84,North,354,3.0,5.0,7,0.00,,,0.00,,2013-02-19 02:23:00,
2013-02-18 19:34:00,43.0,-12.0,29.85,NE,45,0.0,2.0,9,0.00,,,0.00,,2013-02-19 02:34:00,
2013-02-18 19:42:00,43.0,-12.0,29.85,NE,45,0.0,2.0,9,0.00,,,0.00,,2013-02-19 02:42:00,
2013-02-18 19:54:00,42.0,-13.0,29.84,North,0,1.0,2.0,9,0.00,,,0.00,,2013-02-19 02:54:00,
2013-02-18 20:05:00,41.0,-11.0,29.84,NE,39,1.0,2.0,10,0.00,,,0.00,,2013-02-19 03:05:00,
2013-02-18 20:13:00,41.0,-11.0,29.84,NE,39,1.0,2.0,10,0.00,,,0.00,,2013-02-19 03:13:00,
2013-02-18 20:23:00,40.0,-12.0,29.84,North,10,3.0,5.0,10,0.00,,,0.00,,2013-02-19 03:23:00,
2013-02-18 20:33:00,42.0,-15.0,29.84,North,358,2.0,6.0,8,0.00,,,0.00,,2013-02-19 03:33:00,
2013-02-18 20:43:00,42.0,-15.0,29.84,North,358,2.0,6.0,8,0.00,,,0.00,,2013-02-19 03:43:00,
2013-02-18 20:54:00,42.0,-13.0,29.85,North,355,2.0,5.0,9,0.00,,,0.00,,2013-02-19 03:54:00,
2013-02-18 21:02:00,41.0,-13.0,29.85,NW,326,2.0,3.0,9,0.00,,,0.00,,2013-02-19 04:02:00,
2013-02-18 21:13:00,41.0,-13.0,29.85,NW,326,2.0,3.0,9,0.00,,,0.00,,2013-02-19 04:13:00,
2013-02-18 21:23:00,40.0,-12.0,29.85,North,349,3.0,4.0,10,0.00,,,0.00,,2013-02-19 04:23:00,
2013-02-18 21:33:00,40.0,-12.0,29.85,NNW,338,2.0,4.0,10,0.00,,,0.00,,2013-02-19 04:33:00,
2013-02-18 21:43:00,40.0,-12.0,29.85,NNW,338,2.0,4.0,10,0.00,,,0.00,,2013-02-19 04:43:00,
2013-02-18 21:55:00,39.0,-11.0,29.85,NNW,340,3.0,3.0,11,0.00,,,0.00,,2013-02-19 04:55:00,
2013-02-18 22:02:00,39.0,-11.0,29.85,NNW,342,2.0,4.0,11,0.00,,,0.00,,2013-02-19 05:02:00,
2013-02-18 22:12:00,39.0,-11.0,29.85,NNW,342,2.0,4.0,11,0.00,,,0.00,,2013-02-19 05:12:00,
2013-02-18 22:22:00,38.0,-12.0,29.85,NW,319,1.0,4.0,11,0.00,,,0.00,,2013-02-19 05:22:00,
2013-02-18 22:32:00,38.0,-12.0,29.85,NW,317,3.0,5.0,11,0.00,,,0.00,,2013-02-19 05:32:00,
2013-02-18 22:43:00,38.0,-12.0,29.85,NW,317,3.0,5.0,11,0.00,,,0.00,,2013-02-19 05:43:00,
2013-02-18 22:52:00,38.0,-10.0,29.86,NNW,337,3.0,5.0,12,0.00,,,0.00,,2013-02-19 05:52:00,
2013-02-18 23:02:00,37.0,-11.0,29.86,NNW,341,1.0,4.0,12,0.00,,,0.00,,2013-02-19 06:02:00,
2013-02-18 23:11:00,37.0,-11.0,29.86,NNW,341,1.0,4.0,12,0.00,,,0.00,,2013-02-19 06:11:00,
2013-02-18 23:21:00,36.0,-10.0,29.86,NW,315,0.0,3.0,13,0.00,,,0.00,,2013-02-19 06:21:00,
2013-02-18 23:32:00,36.0,-9.0,29.86,ENE,68,0.0,1.0,14,0.00,,,0.00,,2013-02-19 06:32:00,
2013-02-18 23:42:00,36.0,-9.0,29.86,ENE,68,0.0,1.0,14,0.00,,,0.00,,2013-02-19 06:42:00,
2013-02-18 23:52:00,34.0,-10.0,29.86,NNW,338,0.0,0.0,14,0.00,,,0.00,,2013-02-19 06:52:00,